Time;durP1;ratioP1;P1;durP2;ratioP2;P2;SDS_P1;SDS_P2;PMS_P1;PMS_P2;Temp;Humidity;BMP_temperature;BMP_pressure;BME280_temperature;BME280_humidity;BME280_pressure;Samples;Min_cycle;Max_cycle;Signal;HPM_P1;HPM_P2
2022/04/02 00:01:44;;;;;;;18.27;13.52;;;333.40;2329.60;;;;;;5049811;28;20028;-56
2022/04/02 00:04:10;;;;;;;17.02;13.48;;;333.30;2329.60;;;;;;5049652;28;20031;-55
2022/04/02 00:06:37;;;;;;;17.02;13.60;;;333.20;2329.60;;;;;;5049896;28;20021;-55
2022/04/02 00:09:03;;;;;;;19.45;14.77;;;333.20;2329.60;;;;;;5049640;28;20025;-54
2022/04/02 00:11:30;;;;;;;23.15;15.30;;;332.90;2329.60;;;;;;5049639;28;20063;-56
2022/04/02 00:13:56;;;;;;;21.05;15.10;;;332.90;2329.60;;;;;;5049707;28;20025;-55
2022/04/02 00:16:22;;;;;;;15.52;12.13;;;332.90;2329.60;;;;;;5049369;28;20017;-56
2022/04/02 00:18:50;;;;;;;16.50;12.10;;;332.90;2329.60;;;;;;5050464;28;20469;-56
2022/04/02 00:21:17;;;;;;;19.63;13.75;;;332.80;2329.60;;;;;;5053553;28;20116;-54
2022/04/02 00:23:46;;;;;;;21.48;15.43;;;308.10;2304.00;;;;;;5053556;28;20025;-56
2022/04/02 00:26:20;;;;;;;18.48;14.18;;;332.90;2329.60;;;;;;5053384;28;20025;-56
2022/04/02 00:28:50;;;;;;;17.00;12.50;;;308.10;2304.00;;;;;;5053124;28;20053;-56
2022/04/02 00:31:18;;;;;;;17.63;12.95;;;308.10;2304.00;;;;;;5053330;28;20498;-55
2022/04/02 00:33:46;;;;;;;16.85;13.57;;;307.90;2304.00;;;;;;5053576;28;20104;-55
2022/04/02 00:36:12;;;;;;;19.73;14.23;;;307.90;2124.80;;;;;;5053251;28;20040;-55
2022/04/02 00:38:39;;;;;;;21.02;14.05;;;307.90;2304.00;;;;;;5053069;28;20471;-56
2022/04/02 00:41:06;;;;;;;15.40;12.95;;;307.90;2304.00;;;;;;5053327;28;20033;-55
2022/04/02 00:43:34;;;;;;;19.95;14.45;;;308.00;2304.00;;;;;;5053130;28;20082;-55
2022/04/02 00:46:05;;;;;;;17.02;12.90;;;308.10;2304.00;;;;;;5053135;28;20410;-56
2022/04/02 00:48:31;;;;;;;18.05;12.25;;;332.90;2329.60;;;;;;5053046;28;20029;-55
2022/04/02 00:51:00;;;;;;;17.70;12.23;;;333.10;2329.60;;;;;;5053057;28;20065;-55
2022/04/02 00:53:30;;;;;;;15.90;13.10;;;333.10;2329.60;;;;;;5053137;28;20029;-55
2022/04/02 00:55:58;;;;;;;15.43;11.30;;;333.20;2329.60;;;;;;5052853;28;20036;-55
2022/04/02 00:58:23;;;;;;;12.35;10.23;;;333.30;2329.60;;;;;;5052881;28;20040;-55
2022/04/02 01:00:49;;;;;;;15.45;12.30;;;333.40;2329.60;;;;;;5052732;28;20029;-56
2022/04/02 01:03:16;;;;;;;17.33;14.10;;;333.30;2329.60;;;;;;5052805;28;20463;-56
2022/04/02 01:05:43;;;;;;;18.25;12.52;;;333.30;2329.60;;;;;;5052650;28;20032;-55
2022/04/02 01:08:09;;;;;;;16.77;12.35;;;333.20;2329.60;;;;;;5052564;28;20025;-55
2022/04/02 01:10:36;;;;;;;11.95;9.43;;;333.20;2329.60;;;;;;5052606;28;20047;-56
2022/04/02 01:13:03;;;;;;;13.23;8.98;;;333.20;2329.60;;;;;;5052437;28;20384;-56
2022/04/02 01:15:29;;;;;;;13.15;8.60;;;333.10;2329.60;;;;;;5052411;28;20029;-56
2022/04/02 01:17:55;;;;;;;10.98;9.55;;;333.10;2329.60;;;;;;5052551;28;20036;-55
2022/04/02 01:20:23;;;;;;;12.80;9.73;;;333.10;2329.60;;;;;;5052359;28;20066;-55
2022/04/02 01:22:49;;;;;;;13.52;10.40;;;333.20;2329.60;;;;;;5052334;28;20040;-56
2022/04/02 01:25:16;;;;;;;15.70;10.63;;;333.20;2329.60;;;;;;5052376;28;20029;-55
2022/04/02 01:27:44;;;;;;;12.93;10.48;;;333.10;2329.60;;;;;;5051916;28;20057;-56
2022/04/02 01:30:10;;;;;;;16.30;11.93;;;333.10;2329.60;;;;;;5050695;28;20094;-56
2022/04/02 01:32:36;;;;;;;17.27;11.90;;;333.10;2329.60;;;;;;5052303;28;20459;-55
2022/04/02 01:35:02;;;;;;;16.27;13.20;;;333.20;2329.60;;;;;;5052353;28;20051;-56
2022/04/02 01:37:28;;;;;;;20.63;15.70;;;333.20;2329.60;;;;;;5052604;28;20464;-55
2022/04/02 01:39:54;;;;;;;27.58;18.98;;;333.20;2329.60;;;;;;5052359;28;20094;-55
2022/04/02 01:42:24;;;;;;;24.67;17.58;;;333.10;2329.60;;;;;;5052023;28;20122;-56
2022/04/02 01:44:51;;;;;;;26.17;19.30;;;333.10;2329.60;;;;;;5051788;28;20546;-56
2022/04/02 01:47:20;;;;;;;22.63;17.80;;;333.00;2329.60;;;;;;5052242;28;20032;-55
2022/04/02 01:49:46;;;;;;;23.65;18.17;;;333.00;2329.60;;;;;;5052079;28;20082;-55
2022/04/02 01:52:15;;;;;;;20.95;15.35;;;333.10;2329.60;;;;;;5051805;28;20421;-55
2022/04/02 01:54:41;;;;;;;21.35;14.85;;;332.90;2329.60;;;;;;5051822;28;20017;-55
2022/04/02 01:57:07;;;;;;;19.30;13.73;;;332.90;2329.60;;;;;;5052311;28;20025;-56
2022/04/02 01:59:33;;;;;;;15.70;10.77;;;332.90;2329.60;;;;;;5051411;28;20029;-56
2022/04/02 02:01:59;;;;;;;18.40;13.60;;;332.90;2329.60;;;;;;5051556;28;20037;-56
2022/04/02 02:04:24;;;;;;;24.90;14.73;;;332.90;2329.60;;;;;;5051796;28;20036;-55
2022/04/02 02:06:50;;;;;;;13.05;9.80;;;332.90;2329.60;;;;;;5051575;28;20021;-56
2022/04/02 02:09:16;;;;;;;18.77;11.27;;;332.90;2329.60;;;;;;5051532;28;20036;-55
2022/04/02 02:11:42;;;;;;;23.42;16.27;;;332.90;2329.60;;;;;;5051408;28;20072;-55
2022/04/02 02:14:07;;;;;;;17.40;11.90;;;332.90;2329.60;;;;;;5051390;28;20029;-56
2022/04/02 02:16:34;;;;;;;15.20;11.15;;;332.90;2329.60;;;;;;5051703;28;20528;-56
2022/04/02 02:19:00;;;;;;;28.92;15.57;;;332.90;2329.60;;;;;;5051439;28;20060;-56
2022/04/02 02:21:26;;;;;;;25.17;15.00;;;332.90;2329.60;;;;;;5051563;28;20029;-56
2022/04/02 02:23:52;;;;;;;16.42;11.80;;;332.90;2329.60;;;;;;5051202;28;20025;-56
2022/04/02 02:26:18;;;;;;;18.08;11.80;;;332.80;2329.60;;;;;;5051035;28;20032;-56
2022/04/02 02:28:43;;;;;;;22.42;15.40;;;332.90;2329.60;;;;;;5050988;28;20123;-56
2022/04/02 02:31:09;;;;;;;20.23;17.20;;;308.10;2304.00;;;;;;5051174;28;20033;-56
2022/04/02 02:36:19;;;;;;;14.77;9.75;;;332.90;2329.60;;;;;;5051006;28;20040;-55
2022/04/02 02:38:46;;;;;;;16.17;9.70;;;332.90;2329.60;;;;;;5051124;28;20017;-55
2022/04/02 02:41:12;;;;;;;11.55;7.65;;;332.80;2329.60;;;;;;5050675;28;20324;-56
2022/04/02 02:43:38;;;;;;;11.35;8.60;;;332.80;2329.60;;;;;;5050655;28;20104;-56
2022/04/02 02:46:04;;;;;;;18.45;9.98;;;332.90;2329.60;;;;;;5050942;28;20511;-56
2022/04/02 02:48:29;;;;;;;19.23;11.10;;;332.90;2329.60;;;;;;5050908;28;20459;-56
2022/04/02 02:50:55;;;;;;;16.13;9.55;;;332.90;2329.60;;;;;;5050680;28;20025;-56
2022/04/02 02:53:21;;;;;;;21.75;12.85;;;332.90;2329.60;;;;;;5050549;28;20100;-56
2022/04/02 02:55:49;;;;;;;11.45;7.43;;;332.80;2329.60;;;;;;5050695;28;20364;-55
2022/04/02 02:58:16;;;;;;;12.20;8.77;;;308.10;2304.00;;;;;;5050511;28;20112;-55
2022/04/02 03:00:42;;;;;;;16.77;11.35;;;307.80;2304.00;;;;;;5050237;28;20032;-55
2022/04/02 03:03:09;;;;;;;15.68;10.80;;;307.90;2304.00;;;;;;5050427;28;20033;-56
2022/04/02 03:05:35;;;;;;;9.65;6.97;;;308.10;2304.00;;;;;;5050610;28;20063;-56
2022/04/02 03:08:01;;;;;;;12.68;8.50;;;308.10;2304.00;;;;;;5050363;28;20424;-56
2022/04/02 03:10:27;;;;;;;18.73;12.55;;;308.10;2304.00;;;;;;5050291;28;20044;-56
2022/04/02 03:12:57;;;;;;;16.65;11.25;;;308.10;2304.00;;;;;;5050417;28;20418;-55
2022/04/02 03:15:24;;;;;;;11.88;8.15;;;308.10;2304.00;;;;;;5050059;28;20406;-56
2022/04/02 03:17:51;;;;;;;10.32;5.50;;;308.10;2304.00;;;;;;5050034;28;20021;-56
2022/04/02 03:20:19;;;;;;;8.48;4.40;;;308.10;2304.00;;;;;;5050283;28;20104;-56
2022/04/02 03:22:46;;;;;;;15.13;7.97;;;308.00;2304.00;;;;;;5050322;28;20021;-56
2022/04/02 03:25:20;;;;;;;13.60;7.93;;;308.10;2304.00;;;;;;5049848;28;20083;-55
2022/04/02 03:27:47;;;;;;;11.15;6.95;;;308.10;2304.00;;;;;;5049906;28;20049;-55
2022/04/02 03:30:16;;;;;;;13.65;8.63;;;308.00;2304.00;;;;;;5049993;28;20434;-55
2022/04/02 03:32:42;;;;;;;16.00;9.80;;;308.00;2304.00;;;;;;5050002;28;20033;-55
2022/04/02 03:35:09;;;;;;;16.25;9.75;;;308.00;2304.00;;;;;;5049934;28;20055;-56
2022/04/02 03:37:39;;;;;;;18.98;13.30;;;308.00;2304.00;;;;;;5049951;28;20029;-55
2022/04/02 03:40:07;;;;;;;18.27;11.43;;;308.00;2304.00;;;;;;5050009;28;20359;-55
2022/04/02 03:42:34;;;;;;;25.98;23.55;;;308.10;2304.00;;;;;;5049985;28;20107;-56
2022/04/02 03:45:00;;;;;;;23.17;13.70;;;307.90;2304.00;;;;;;5049778;28;20025;-55
2022/04/02 03:47:26;;;;;;;25.48;15.52;;;307.80;2304.00;;;;;;5049930;28;20021;-56
2022/04/02 03:49:52;;;;;;;21.10;14.30;;;307.80;2304.00;;;;;;5049588;28;20459;-55
2022/04/02 03:52:18;;;;;;;37.78;16.27;;;307.80;2304.00;;;;;;5049795;28;20364;-55
2022/04/02 03:54:45;;;;;;;14.68;10.88;;;307.50;2304.00;;;;;;5049371;28;20486;-55
2022/04/02 03:57:12;;;;;;;15.02;9.73;;;307.50;2304.00;;;;;;5047980;28;20121;-56
2022/04/02 03:59:40;;;;;;;22.67;12.63;;;307.60;2304.00;;;;;;5049584;28;20048;-56
2022/04/02 04:02:07;;;;;;;14.57;8.10;;;307.50;2304.00;;;;;;5049698;28;20029;-54
2022/04/02 04:04:33;;;;;;;13.52;9.13;;;307.20;2304.00;;;;;;5049711;28;20032;-55
2022/04/02 04:06:59;;;;;;;21.45;12.10;;;307.20;2304.00;;;;;;5049603;28;20459;-56
2022/04/02 04:09:25;;;;;;;20.33;13.43;;;307.40;2304.00;;;;;;5049712;28;20486;-54
2022/04/02 04:11:51;;;;;;;25.13;15.88;;;307.50;2304.00;;;;;;5049530;28;20063;-55
2022/04/02 04:14:19;;;;;;;30.50;18.80;;;307.60;2304.00;;;;;;5049523;28;20108;-55
2022/04/02 04:16:45;;;;;;;19.65;13.15;;;307.60;2304.00;;;;;;5049701;28;20131;-55
2022/04/02 04:19:11;;;;;;;28.23;17.15;;;307.60;2304.00;;;;;;5049485;28;20116;-56
2022/04/02 04:21:37;;;;;;;32.17;22.98;;;307.50;2304.00;;;;;;5049580;28;20057;-56
2022/04/02 04:24:08;;;;;;;65.10;36.30;;;307.30;2304.00;;;;;;5049525;28;20124;-55
2022/04/02 04:26:34;;;;;;;35.88;19.75;;;282.40;2278.40;;;;;;5049614;28;20028;-56
2022/04/02 04:29:00;;;;;;;30.95;17.95;;;282.40;2278.40;;;;;;5049138;28;20049;-56
2022/04/02 04:31:26;;;;;;;39.13;23.25;;;282.20;2278.40;;;;;;5049257;28;20045;-55
2022/04/02 04:33:52;;;;;;;34.15;26.30;;;282.20;2278.40;;;;;;5049122;28;20427;-55
2022/04/02 04:36:24;;;;;;;34.92;28.70;;;282.10;2278.40;;;;;;5049461;28;20078;-55
2022/04/02 04:38:51;;;;;;;39.08;35.03;;;282.20;2278.40;;;;;;5049406;28;20025;-56
2022/04/02 04:41:17;;;;;;;34.42;26.80;;;282.30;2278.40;;;;;;5049446;28;20100;-56
2022/04/02 04:43:46;;;;;;;35.90;26.02;;;282.00;2278.40;;;;;;5049468;28;20025;-55
2022/04/02 04:46:12;;;;;;;40.28;31.48;;;282.10;2201.60;;;;;;5049215;28;20033;-56
2022/04/02 04:48:38;;;;;;;31.65;21.90;;;282.10;2278.40;;;;;;5049505;28;20814;-55
2022/04/02 04:51:04;;;;;;;44.10;34.95;;;282.20;2278.40;;;;;;5049296;28;20113;-56
2022/04/02 04:53:31;;;;;;;34.17;29.30;;;282.20;2278.40;;;;;;5049262;28;20036;-55
2022/04/02 04:55:58;;;;;;;33.85;26.02;;;282.20;2278.40;;;;;;5049316;28;20025;-55
2022/04/02 04:58:23;;;;;;;47.28;38.75;;;282.30;2278.40;;;;;;5049122;28;20032;-56
2022/04/02 05:00:49;;;;;;;51.85;44.88;;;282.30;2278.40;;;;;;5048938;28;20108;-56
2022/04/02 05:03:15;;;;;;;50.60;25.98;;;282.20;2278.40;;;;;;5049326;28;20463;-55
2022/04/02 05:05:41;;;;;;;56.30;24.20;;;282.40;2278.40;;;;;;5049691;28;20550;-56
2022/04/02 05:08:07;;;;;;;43.78;21.00;;;282.50;2278.40;;;;;;5052987;28;20039;-55
2022/04/02 05:10:34;;;;;;;37.28;21.75;;;282.40;2278.40;;;;;;5052615;28;20491;-56
2022/04/02 05:13:00;;;;;;;46.03;23.35;;;282.50;2278.40;;;;;;5052595;28;20025;-56
2022/04/02 05:15:26;;;;;;;38.20;22.90;;;307.30;2304.00;;;;;;5052647;28;20050;-56
2022/04/02 05:17:53;;;;;;;36.70;22.23;;;307.70;2304.00;;;;;;5052332;28;20059;-55
2022/04/02 05:20:19;;;;;;;46.03;23.75;;;308.10;2304.00;;;;;;5052397;28;20052;-56
2022/04/02 05:22:45;;;;;;;42.22;23.67;;;333.00;2329.60;;;;;;5052599;28;20471;-56
2022/04/02 05:25:11;;;;;;;55.85;23.40;;;333.40;2329.60;;;;;;5052314;28;20025;-56
2022/04/02 05:27:37;;;;;;;47.65;33.35;;;333.50;2329.60;;;;;;5052263;28;20025;-56
2022/04/02 05:30:04;;;;;;;49.67;24.13;;;333.60;2329.60;;;;;;5052325;28;20049;-56
2022/04/02 05:32:33;;;;;;;31.65;23.48;;;358.50;2329.60;;;;;;5052203;28;20032;-56
2022/04/02 05:34:59;;;;;;;33.67;21.92;;;333.70;2329.60;;;;;;5052254;28;20033;-56
2022/04/02 05:37:25;;;;;;;37.97;24.27;;;333.60;2329.60;;;;;;5052246;28;20505;-56
2022/04/02 05:39:51;;;;;;;37.72;23.15;;;333.70;2329.60;;;;;;5052351;28;20029;-56
2022/04/02 05:42:17;;;;;;;37.40;25.55;;;358.70;2329.60;;;;;;5052352;28;20430;-56
2022/04/02 05:44:43;;;;;;;36.90;19.98;;;359.10;2329.60;;;;;;5052029;28;20375;-56
2022/04/02 05:47:11;;;;;;;39.67;23.50;;;358.70;2329.60;;;;;;5052005;28;20029;-56
2022/04/02 05:49:37;;;;;;;33.72;23.45;;;358.60;2329.60;;;;;;5052040;28;20462;-54
2022/04/02 05:52:04;;;;;;;40.55;29.65;;;358.60;2329.60;;;;;;5051967;28;20033;-56
2022/04/02 05:54:31;;;;;;;176.52;108.00;;;333.70;2329.60;;;;;;5051907;28;20025;-56
2022/04/02 05:56:57;;;;;;;65.68;49.67;;;358.50;2329.60;;;;;;5052077;28;20033;-56
2022/04/02 05:59:23;;;;;;;99.18;73.88;;;358.70;2329.60;;;;;;5051668;28;20029;-56
2022/04/02 06:01:49;;;;;;;42.10;30.27;;;358.70;2329.60;;;;;;5051801;28;20041;-56
2022/04/02 06:04:15;;;;;;;43.05;31.48;;;358.60;2329.60;;;;;;5051892;28;20525;-55
2022/04/02 06:06:41;;;;;;;37.38;28.70;;;333.70;2329.60;;;;;;5051577;28;20063;-56
2022/04/02 06:09:07;;;;;;;60.83;41.65;;;333.60;2329.60;;;;;;5051681;28;20100;-55
2022/04/02 06:11:33;;;;;;;61.13;42.17;;;333.50;2329.60;;;;;;5051605;28;20033;-56
2022/04/02 06:13:59;;;;;;;57.75;41.60;;;333.50;2329.60;;;;;;5051501;28;20425;-56
2022/04/02 06:16:25;;;;;;;63.65;43.40;;;333.50;2329.60;;;;;;5051189;28;20100;-56
2022/04/02 06:18:52;;;;;;;61.60;42.97;;;333.30;2329.60;;;;;;5051305;28;20087;-56
2022/04/02 06:21:18;;;;;;;60.58;42.25;;;333.30;2329.60;;;;;;5051243;28;20460;-56
2022/04/02 06:23:44;;;;;;;56.15;41.92;;;333.30;2329.60;;;;;;5051461;28;20430;-54
2022/04/02 06:26:10;;;;;;;44.97;35.15;;;333.10;2329.60;;;;;;5051435;28;20021;-56
2022/04/02 06:28:44;;;;;;;39.97;31.30;;;332.90;2329.60;;;;;;5051135;28;20071;-55
2022/04/02 06:31:10;;;;;;;45.83;37.08;;;332.90;2329.60;;;;;;5051006;28;20090;-56
2022/04/02 06:33:36;;;;;;;40.35;30.65;;;332.90;2329.60;;;;;;5051175;28;20025;-56
2022/04/02 06:36:02;;;;;;;54.05;35.83;;;308.10;2304.00;;;;;;5051056;28;20103;-56
2022/04/02 06:38:28;;;;;;;52.00;36.28;;;307.90;2304.00;;;;;;5049745;28;20861;-56
2022/04/02 06:40:53;;;;;;;55.28;36.75;;;308.10;2304.00;;;;;;5051049;28;20086;-56
2022/04/02 06:43:19;;;;;;;48.95;36.78;;;332.80;2329.60;;;;;;5050802;28;20028;-57
2022/04/02 06:45:46;;;;;;;53.40;38.35;;;308.10;2304.00;;;;;;5050934;28;20047;-55
2022/04/02 06:48:13;;;;;;;47.80;33.80;;;308.10;2304.00;;;;;;5050686;28;20033;-56
2022/04/02 06:50:40;;;;;;;49.90;36.08;;;308.10;2304.00;;;;;;5050717;28;20032;-56
2022/04/02 06:53:06;;;;;;;54.20;36.42;;;308.10;2304.00;;;;;;5050719;28;20021;-54
2022/04/02 06:55:32;;;;;;;40.80;29.83;;;332.90;2329.60;;;;;;5050781;28;20017;-56
2022/04/02 06:57:59;;;;;;;43.17;32.17;;;332.90;2329.60;;;;;;5050665;28;20837;-54
2022/04/02 07:00:25;;;;;;;44.47;33.42;;;333.20;2329.60;;;;;;5050660;28;20471;-55
2022/04/02 07:02:51;;;;;;;43.95;33.85;;;333.20;2329.60;;;;;;5050508;28;20021;-57
2022/04/02 07:05:20;;;;;;;33.60;24.92;;;333.60;2329.60;;;;;;5050597;28;20163;-56
2022/04/02 07:07:47;;;;;;;30.40;22.00;;;333.60;2329.60;;;;;;5050588;28;20521;-55
2022/04/02 07:10:13;;;;;;;33.20;23.45;;;333.50;2329.60;;;;;;5050178;28;20494;-56
2022/04/02 07:12:40;;;;;;;31.52;24.02;;;333.60;2329.60;;;;;;5050485;28;20079;-56
2022/04/02 07:15:06;;;;;;;31.17;21.83;;;333.70;2329.60;;;;;;5050268;28;20113;-57
2022/04/02 07:17:33;;;;;;;36.30;26.95;;;358.50;2329.60;;;;;;5050303;28;20395;-55
2022/04/02 07:20:00;;;;;;;31.55;23.40;;;358.70;2329.60;;;;;;5050312;28;20395;-56
2022/04/02 07:22:26;;;;;;;30.70;22.40;;;358.60;2329.60;;;;;;5050295;28;20100;-55
2022/04/02 07:24:54;;;;;;;34.80;30.67;;;358.60;2329.60;;;;;;5050093;28;20517;-56
2022/04/02 07:27:29;;;;;;;40.17;28.10;;;358.80;2329.60;;;;;;5050022;28;20024;-55
2022/04/02 07:29:56;;;;;;;39.33;25.08;;;359.00;2329.60;;;;;;5049360;28;20069;-56
2022/04/02 07:32:22;;;;;;;428.05;294.15;;;359.10;2329.60;;;;;;5049908;28;20033;-56
2022/04/02 07:34:48;;;;;;;259.88;188.80;;;359.20;2329.60;;;;;;5049932;28;20222;-56
2022/04/02 07:37:35;;;;;;;42.25;30.20;;;359.20;2329.60;;;;;;5050122;28;20021;-56
2022/04/02 07:40:05;;;;;;;39.67;24.88;;;359.10;2329.60;;;;;;5050031;28;20021;-55
2022/04/02 07:42:33;;;;;;;37.70;26.40;;;359.20;2329.60;;;;;;5050064;28;20388;-54
2022/04/02 07:45:04;;;;;;;48.55;32.97;;;384.00;2329.60;;;;;;5050009;28;20033;-56
2022/04/02 07:47:38;;;;;;;45.13;35.33;;;384.40;2329.60;;;;;;5049617;28;20585;-56
2022/04/02 07:50:13;;;;;;;51.55;42.60;;;409.60;2355.20;;;;;;5049884;28;20033;-56
2022/04/02 07:52:43;;;;;;;43.22;32.97;;;410.20;2355.20;;;;;;5049758;28;20040;-56
2022/04/02 07:55:10;;;;;;;47.40;34.22;;;410.30;2355.20;;;;;;5049753;28;20025;-56
2022/04/02 07:57:47;;;;;;;61.05;45.22;;;384.90;2329.60;;;;;;5049707;28;20037;-56
2022/04/02 08:00:14;;;;;;;52.67;36.42;;;384.10;2329.60;;;;;;5049576;28;20071;-55
2022/04/02 08:02:43;;;;;;;52.83;36.85;;;359.20;2329.60;;;;;;5049698;28;20079;-56
2022/04/02 08:05:14;;;;;;;44.95;31.10;;;358.80;2329.60;;;;;;5049654;28;20036;-56
2022/04/02 08:07:44;;;;;;;43.38;31.67;;;358.80;2329.60;;;;;;5049682;28;20112;-56
2022/04/02 08:10:13;;;;;;;48.65;34.42;;;358.60;2329.60;;;;;;5049448;28;20467;-55
2022/04/02 08:12:40;;;;;;;52.20;32.55;;;358.50;2329.60;;;;;;5047609;28;20053;-56
2022/04/02 08:15:24;;;;;;;52.25;35.72;;;358.60;2329.60;;;;;;5040549;28;20030;-55
2022/04/02 08:17:53;;;;;;;44.75;33.25;;;358.50;2329.60;;;;;;5029771;28;20064;-57
2022/04/02 08:20:20;;;;;;;47.97;33.55;;;358.80;2329.60;;;;;;5029173;28;20025;-56
2022/04/02 08:22:46;;;;;;;42.45;31.80;;;358.80;2329.60;;;;;;5031326;28;20112;-55
2022/04/02 08:25:13;;;;;;;89.95;73.70;;;358.80;2329.60;;;;;;5049833;28;20017;-56
2022/04/02 08:27:58;;;;;;;55.00;39.88;;;358.80;2329.60;;;;;;5048931;28;20047;-58
2022/04/02 08:30:35;;;;;;;99.80;69.07;;;358.50;2329.60;;;;;;5049446;28;20041;-56
2022/04/02 08:33:34;;;;;;;59.42;43.70;;;358.70;2329.60;;;;;;5049477;28;20506;-57
2022/04/02 08:36:14;;;;;;;50.58;36.53;;;358.60;2329.60;;;;;;5049484;28;20059;-56
2022/04/02 08:38:55;;;;;;;45.40;33.90;;;358.60;2329.60;;;;;;5049611;28;20037;-55
2022/04/02 08:41:51;;;;;;;43.92;30.80;;;358.60;2329.60;;;;;;5052785;28;20021;-55
2022/04/02 08:44:54;;;;;;;38.55;27.65;;;358.80;2329.60;;;;;;5053277;28;20067;-54
2022/04/02 08:47:29;;;;;;;54.83;40.10;;;358.60;2329.60;;;;;;5053122;28;20029;-55
2022/04/02 08:50:08;;;;;;;43.40;31.20;;;358.70;2329.60;;;;;;5053405;28;20036;-55
2022/04/02 08:52:53;;;;;;;61.10;41.70;;;358.60;2329.60;;;;;;5053054;28;20064;-55
2022/04/02 08:55:31;;;;;;;39.65;28.90;;;358.40;2329.60;;;;;;5052893;28;20074;-56
2022/04/02 08:58:10;;;;;;;42.72;32.03;;;358.70;2329.60;;;;;;5052813;28;20029;-55
2022/04/02 09:00:40;;;;;;;49.90;33.80;;;359.00;2329.60;;;;;;5052934;28;20090;-56
2022/04/02 09:03:24;;;;;;;63.22;41.30;;;359.20;2329.60;;;;;;5052813;28;20059;-54
2022/04/02 09:05:50;;;;;;;46.70;33.35;;;359.00;2329.60;;;;;;5052715;28;20013;-55
2022/04/02 09:08:35;;;;;;;54.20;37.22;;;384.30;2329.60;;;;;;5052957;28;20490;-55
2022/04/02 09:11:23;;;;;;;45.38;32.65;;;384.80;2329.60;;;;;;5052655;28;20064;-54
2022/04/02 09:14:19;;;;;;;52.35;34.15;;;409.90;2355.20;;;;;;5052540;28;20086;-56
2022/04/02 09:16:48;;;;;;;45.05;32.50;;;410.00;2355.20;;;;;;5052813;28;20029;-63
2022/04/02 09:19:25;;;;;;;55.53;34.15;;;410.20;2355.20;;;;;;5052617;28;20017;-63
2022/04/02 09:22:03;;;;;;;50.42;36.90;;;410.50;2355.20;;;;;;5052492;28;20028;-61
2022/04/02 09:24:37;;;;;;;60.28;44.03;;;435.30;2355.20;;;;;;5052600;28;20036;-61
2022/04/02 09:27:37;;;;;;;59.90;44.35;;;435.60;2355.20;;;;;;5052428;28;20017;-61
2022/04/02 09:30:18;;;;;;;55.25;40.90;;;409.90;2355.20;;;;;;5052216;28;20049;-63
2022/04/02 09:32:44;;;;;;;63.38;43.92;;;384.50;2329.60;;;;;;5052398;28;20021;-61
2022/04/02 09:35:39;;;;;;;61.25;42.25;;;384.30;2329.60;;;;;;5052057;28;20032;-62
2022/04/02 09:38:25;;;;;;;57.63;42.38;;;384.60;2329.60;;;;;;5052216;28;20476;-60
2022/04/02 09:40:52;;;;;;;47.92;33.90;;;384.80;2329.60;;;;;;5051963;28;20029;-58
2022/04/02 09:43:31;;;;;;;55.08;36.25;;;384.90;2329.60;;;;;;5052108;28;20074;-58
2022/04/02 09:46:06;;;;;;;59.08;39.58;;;384.40;2329.60;;;;;;5052214;28;20021;-62
2022/04/02 09:48:56;;;;;;;48.70;36.63;;;359.20;2329.60;;;;;;5051782;28;20025;-58
2022/04/02 09:51:32;;;;;;;55.90;37.85;;;359.10;2329.60;;;;;;5050810;28;20029;-57
2022/04/02 09:54:24;;;;;;;51.05;35.63;;;359.20;2329.60;;;;;;5051945;28;20468;-67
2022/04/02 09:57:00;;;;;;;52.30;34.50;;;359.30;2329.60;;;;;;5051033;28;20032;-57
2022/04/02 09:59:56;;;;;;;54.95;40.83;;;384.80;2329.60;;;;;;5050849;28;20456;-59
2022/04/02 10:03:01;;;;;;;52.95;35.00;;;384.50;2329.60;;;;;;5050603;28;20032;-66
2022/04/02 10:05:42;;;;;;;55.40;40.17;;;409.80;2355.20;;;;;;5050544;28;20376;-57
2022/04/02 10:08:20;;;;;;;53.45;38.08;;;384.30;2329.60;;;;;;5050755;28;20087;-58
2022/04/02 10:10:49;;;;;;;47.95;35.13;;;410.20;2355.20;;;;;;5050845;28;20028;-67
2022/04/02 10:13:16;;;;;;;50.97;35.95;;;410.10;2355.20;;;;;;5050775;28;20025;-59
2022/04/02 10:15:42;;;;;;;49.70;34.75;;;410.20;2355.20;;;;;;5050543;28;20494;-65
2022/04/02 10:18:11;;;;;;;21.95;14.40;;;435.20;2355.20;;;;;;5051218;28;20028;-65
2022/04/02 10:20:38;;;;;;;4.10;1.75;;;435.20;2227.20;;;;;;5051617;28;20075;-66
2022/04/02 10:23:12;;;;;;;13.52;9.13;;;435.30;1740.80;;;;;;5051511;28;20029;-58
2022/04/02 10:26:00;;;;;;;16.67;9.65;;;435.50;1689.60;;;;;;5051296;28;20017;-58
2022/04/02 10:28:30;;;;;;;30.55;14.98;;;435.40;1612.80;;;;;;5051092;28;20446;-66
2022/04/02 10:31:01;;;;;;;46.10;20.75;;;435.50;1587.20;;;;;;5051247;28;20041;-65
2022/04/02 10:33:34;;;;;;;44.35;23.25;;;435.70;1612.80;;;;;;5041372;28;20025;-59
2022/04/02 10:36:03;;;;;;;52.00;22.35;;;435.90;1587.20;;;;;;5050042;28;20033;-61
2022/04/02 10:38:33;;;;;;;87.50;47.55;;;435.80;1510.40;;;;;;5039120;28;20028;-63
2022/04/02 10:41:16;;;;;;;123.40;78.57;;;435.70;1459.20;;;;;;5042106;28;20080;-58
2022/04/02 10:43:56;;;;;;;28.77;19.55;;;435.80;1433.60;;;;;;5030890;28;20025;-58
2022/04/02 10:46:25;;;;;;;3.65;1.90;;;435.90;1484.80;;;;;;5031167;28;20104;-66
2022/04/02 10:48:57;;;;;;;3.78;2.08;;;460.80;1561.60;;;;;;5030631;28;20468;-65
2022/04/02 10:51:31;;;;;;;9.00;4.68;;;461.00;1510.40;;;;;;5030711;28;20044;-65
2022/04/02 10:54:02;;;;;;;6.82;3.22;;;461.10;1484.80;;;;;;5031082;28;20122;-60
2022/04/02 10:56:46;;;;;;;14.10;7.60;;;461.10;1433.60;;;;;;5036124;28;20462;-59
2022/04/02 10:59:14;;;;;;;18.20;10.13;;;461.10;1408.00;;;;;;5046804;28;20025;-59
2022/04/02 11:01:43;;;;;;;9.88;4.25;;;460.80;1433.60;;;;;;5043376;28;20120;-58
2022/04/02 11:04:33;;;;;;;8.35;4.82;;;460.80;1356.80;;;;;;5038950;28;20132;-62
2022/04/02 11:07:00;;;;;;;6.53;3.85;;;460.80;1382.40;;;;;;5038317;28;20025;-63
2022/04/02 11:09:36;;;;;;;4.47;1.98;;;460.80;1331.20;;;;;;5038304;28;20440;-58
2022/04/02 11:12:15;;;;;;;9.63;6.97;;;436.10;1382.40;;;;;;5036002;28;20029;-58
2022/04/02 11:14:43;;;;;;;14.85;10.30;;;436.10;1280.00;;;;;;5034957;28;20067;-58
2022/04/02 11:17:32;;;;;;;9.18;5.70;;;461.00;1331.20;;;;;;5039392;28;20026;-58
2022/04/02 11:20:25;;;;;;;4.93;2.55;;;461.10;1254.40;;;;;;5033832;28;20440;-61
2022/04/02 11:23:02;;;;;;;5.65;3.88;;;460.90;1254.40;;;;;;5039438;28;20091;-58
2022/04/02 11:25:31;;;;;;;10.02;5.28;;;460.80;1228.80;;;;;;5039588;28;20105;-58
2022/04/02 11:28:10;;;;;;;6.07;3.28;;;460.80;1228.80;;;;;;5037709;28;20495;-66
2022/04/02 11:30:41;;;;;;;5.00;3.63;;;460.80;1228.80;;;;;;5038139;28;20044;-61
2022/04/02 11:33:16;;;;;;;7.20;4.95;;;461.50;1228.80;;;;;;5038343;28;20049;-58
2022/04/02 11:35:59;;;;;;;8.10;5.80;;;461.00;1228.80;;;;;;5038243;28;20079;-59
2022/04/02 11:38:49;;;;;;;5.10;3.50;;;461.20;1203.20;;;;;;5038910;28;20025;-57
2022/04/02 11:41:23;;;;;;;11.18;9.00;;;460.90;1203.20;;;;;;5039860;28;20017;-59
2022/04/02 11:44:10;;;;;;;7.47;2.50;;;460.90;1203.20;;;;;;5039205;28;20025;-58
2022/04/02 11:47:03;;;;;;;8.27;4.38;;;436.00;1254.40;;;;;;5039600;28;20025;-58
2022/04/02 11:49:33;;;;;;;5.20;3.28;;;460.80;1280.00;;;;;;5038836;28;20409;-64
2022/04/02 11:52:00;;;;;;;5.90;3.50;;;461.00;1280.00;;;;;;5039645;28;20037;-59
2022/04/02 11:54:26;;;;;;;13.75;8.18;;;461.20;1228.80;;;;;;5038653;28;20368;-58
2022/04/02 11:57:09;;;;;;;18.05;11.13;;;461.20;1254.40;;;;;;5038334;28;20033;-58
2022/04/02 11:59:36;;;;;;;8.63;3.30;;;461.40;1203.20;;;;;;5036286;28;20046;-66
2022/04/02 12:02:03;;;;;;;11.05;2.53;;;461.50;1203.20;;;;;;5040262;28;20498;-58
2022/04/02 12:04:29;;;;;;;11.23;4.20;;;461.10;1203.20;;;;;;5040507;28;20026;-58
2022/04/02 12:07:05;;;;;;;4.32;2.53;;;460.80;1203.20;;;;;;5036951;28;20148;-57
2022/04/02 12:09:32;;;;;;;4.32;2.92;;;436.10;1177.60;;;;;;5039641;28;20029;-64
2022/04/02 12:12:06;;;;;;;7.28;3.42;;;436.10;1203.20;;;;;;5037927;28;20033;-60
2022/04/02 12:14:39;;;;;;;8.77;4.20;;;435.90;1177.60;;;;;;5038070;28;20380;-57
2022/04/02 12:17:10;;;;;;;8.45;3.72;;;435.70;1203.20;;;;;;5042147;28;20032;-58
2022/04/02 12:19:39;;;;;;;20.73;10.02;;;435.20;1433.60;;;;;;5041658;28;20021;-58